CDT,Max TemperatureF,Mean TemperatureF,Min TemperatureF,Max Dew PointF,MeanDew PointF,Min DewpointF,Max Humidity, Mean Humidity, Min Humidity, Max Sea Level PressureIn, Mean Sea Level PressureIn, Min Sea Level PressureIn, Max VisibilityMiles, Mean VisibilityMiles, Min VisibilityMiles, Max Wind SpeedMPH, Mean Wind SpeedMPH, Max Gust SpeedMPH,PrecipitationIn, CloudCover, Events, WindDirDegrees
2013-5-1,55,42,30,43,34,30,100,88,47,30.48,30.27,29.97,10,7,1,18,10,22,0.00,8,Rain-Snow,327
2013-5-2,44,37,30,30,29,27,100,76,49,30.52,30.47,30.40,10,9,1,16,9,21,0.00,4,Rain-Snow,10
2013-5-3,37,34,30,34,29,25,100,87,65,30.39,30.23,30.13,10,7,1,16,10,23,0.00,6,Rain-Snow,8
2013-5-4,48,39,30,43,36,30,100,89,76,30.16,30.12,30.09,10,10,4,13,9,17,0.00,7,,11
2013-5-5,64,50,37,46,41,36,93,77,52,30.16,30.12,30.07,10,10,10,9,6,,0.00,2,,359
2013-5-6,71,55,39,48,46,39,100,68,38,30.11,30.07,30.02,10,10,7,6,1,,0.00,1,,327
2013-5-7,75,60,46,52,47,43,100,60,31,30.07,30.02,29.97,10,9,4,8,2,,0.00,0,,203
2013-5-8,75,62,48,55,50,45,94,71,34,30.02,29.98,29.93,10,9,5,14,2,18,0.01,5,Rain-Thunderstorm,120
2013-5-9,57,50,42,55,48,30,100,88,61,30.08,30.00,29.95,10,9,5,20,8,25,0.00,7,Rain,17
2013-5-10,64,50,37,43,30,25,71,48,24,30.10,30.02,29.89,10,10,10,10,7,,0.00,1,Rain,358
2013-5-11,53,44,35,41,27,19,71,49,30,30.17,30.06,29.88,10,10,10,31,16,41,0.00,3,Rain,324
2013-5-12,55,42,30,30,23,18,80,48,23,30.22,30.16,30.09,10,10,7,17,8,24,0.00,0,,310
2013-5-13,71,50,30,46,34,25,86,52,27,30.11,29.94,29.66,10,10,7,18,5,25,0.00,1,Rain,171
2013-5-14,96,72,48,54,46,30,87,41,17,29.69,29.60,29.45,10,10,5,33,8,39,0.00,0,Rain,240
2013-5-15,73,62,51,48,45,43,76,52,36,29.93,29.85,29.69,10,10,10,21,10,26,0.00,0,Rain,278
2013-5-16,80,68,55,48,43,34,67,41,26,29.92,29.88,29.85,10,10,3,16,7,21,0.00,1,Rain,71
2013-5-17,64,58,51,55,51,36,100,88,34,30.00,29.96,29.89,10,8,2,16,10,20,0.00,8,Rain,96
2013-5-18,78,64,51,66,58,52,100,86,57,30.03,29.91,29.79,10,7,1,18,7,21,0.00,3,Rain-Thunderstorm,125
2013-5-19,78,69,60,66,62,59,100,87,61,29.81,29.69,29.54,10,9,1,21,7,29,0.00,4,Rain-Thunderstorm,146
2013-5-20,69,62,55,61,58,54,100,83,64,29.59,29.56,29.51,10,10,2,20,8,28,0.00,6,Rain-Thunderstorm,167
2013-5-21,64,58,51,57,54,50,100,90,68,29.70,29.59,29.52,10,9,3,13,5,17,0.00,7,,136
2013-5-22,51,48,46,50,47,45,100,95,76,29.97,29.77,29.68,10,7,2,14,8,21,0.00,8,Rain,11
2013-5-23,62,52,42,43,37,32,87,60,34,30.34,30.20,29.98,10,10,10,14,10,20,0.00,0,,30
2013-5-24,66,50,33,50,41,30,100,68,45,30.39,30.31,30.19,10,10,7,15,4,21,0.00,2,Rain-Thunderstorm,141
2013-5-25,57,54,50,50,47,43,94,79,67,30.27,30.24,30.22,10,10,5,18,9,26,0.00,8,Rain,125
2013-5-26,55,50,46,48,44,39,88,77,62,30.23,30.16,30.04,10,10,10,25,11,31,0.00,7,Rain,109
2013-5-27,55,53,51,55,51,48,100,91,82,30.04,29.92,29.83,10,7,1,17,11,22,0.00,8,Rain,96
2013-5-28,57,54,51,55,53,50,100,98,94,29.85,29.75,29.72,10,6,2,10,6,,0.00,8,Rain,87
2013-5-29,71,60,50,70,60,50,100,95,83,29.82,29.75,29.65,10,5,0,14,3,22,0.00,6,Fog-Rain-Thunderstorm,123
2013-5-30,73,68,62,64,62,61,100,84,65,29.68,29.59,29.53,10,10,3,22,11,31,0.00,4,Rain-Thunderstorm,165
2013-5-31,75,68,60,61,57,50,94,73,41,29.57,29.55,29.52,10,10,5,22,11,36,0.00,3,Rain-Thunderstorm,184